Time;durP1;ratioP1;P1;durP2;ratioP2;P2;SDS_P1;SDS_P2;PMS_P1;PMS_P2;Temp;Humidity;BMP_temperature;BMP_pressure;BME280_temperature;BME280_humidity;BME280_pressure;Samples;Min_cycle;Max_cycle;Signal;HPM_P1;HPM_P2
2022/05/18 04:29:51;;;;;;;21.93;20.23;;;14.90;99.90;;;;;;5005055;23;20502;-72
2022/05/18 04:32:17;;;;;;;21.57;19.67;;;14.90;99.90;;;;;;4921718;29;20450;-74
2022/05/18 04:34:48;;;;;;;21.90;19.70;;;15.20;99.90;;;;;;4914866;29;20984;-74
2022/05/18 04:37:14;;;;;;;22.30;20.47;;;15.50;99.90;;;;;;4925991;29;20477;-74
2022/05/18 04:39:41;;;;;;;22.10;20.60;;;15.90;99.90;;;;;;4915308;29;20940;-73
2022/05/18 04:42:09;;;;;;;22.93;20.67;;;16.30;99.90;;;;;;4915438;29;20462;-73
2022/05/18 04:44:35;;;;;;;21.40;19.47;;;16.70;99.90;;;;;;4915337;29;20812;-73
2022/05/18 04:47:04;;;;;;;21.43;19.60;;;17.00;99.90;;;;;;4915320;29;20458;-74
2022/05/18 04:49:32;;;;;;;22.03;20.40;;;17.20;99.90;;;;;;4915232;29;20827;-75
2022/05/18 04:51:59;;;;;;;19.87;18.23;;;17.30;99.90;;;;;;4915059;29;20541;-74
2022/05/18 04:54:26;;;;;;;20.97;18.90;;;17.50;99.90;;;;;;4915248;29;20465;-74
2022/05/18 04:56:53;;;;;;;19.03;17.50;;;17.70;99.90;;;;;;4915117;29;20870;-75
2022/05/18 04:59:19;;;;;;;18.77;17.50;;;17.80;99.90;;;;;;4915020;29;20462;-76
2022/05/18 05:01:46;;;;;;;18.43;17.13;;;17.90;99.90;;;;;;4914873;29;20466;-75
2022/05/18 05:04:15;;;;;;;19.53;18.03;;;18.10;99.90;;;;;;4914927;29;20453;-75
2022/05/18 05:06:43;;;;;;;19.50;18.07;;;18.30;99.90;;;;;;4914716;29;20487;-75
2022/05/18 05:09:10;;;;;;;19.00;17.40;;;18.60;99.90;;;;;;4914725;29;20473;-75
2022/05/18 05:11:37;;;;;;;19.90;18.10;;;18.90;99.90;;;;;;4914701;29;20461;-75
2022/05/18 05:14:05;;;;;;;17.83;16.30;;;19.40;99.90;;;;;;4914917;29;20450;-75
2022/05/18 05:16:32;;;;;;;19.60;18.30;;;19.70;99.90;;;;;;4914875;29;20461;-75
2022/05/18 05:18:59;;;;;;;19.50;17.57;;;19.90;99.90;;;;;;4914417;29;20462;-75
2022/05/18 05:21:27;;;;;;;18.93;16.80;;;19.90;99.90;;;;;;4914657;29;20814;-75
2022/05/18 05:23:54;;;;;;;19.53;17.77;;;19.80;99.90;;;;;;4914513;29;20462;-75
2022/05/18 05:26:21;;;;;;;21.27;19.47;;;19.90;99.90;;;;;;4914404;29;20454;-75
2022/05/18 05:28:47;;;;;;;18.13;16.97;;;19.90;99.90;;;;;;4923621;29;20477;-75
2022/05/18 05:31:14;;;;;;;19.70;17.93;;;19.90;99.90;;;;;;4932787;29;20457;-76
2022/05/18 05:33:42;;;;;;;20.13;18.63;;;19.90;99.90;;;;;;4933327;29;20493;-75
2022/05/18 05:36:10;;;;;;;19.37;17.67;;;20.20;99.90;;;;;;4933012;29;20457;-75
2022/05/18 05:38:38;;;;;;;19.30;18.10;;;20.40;99.90;;;;;;4944011;29;20461;-75
2022/05/18 05:41:05;;;;;;;18.90;17.40;;;20.40;99.90;;;;;;4933551;29;20493;-74
2022/05/18 05:43:32;;;;;;;18.87;17.20;;;20.30;99.90;;;;;;4933500;29;20449;-75
2022/05/18 05:46:01;;;;;;;18.20;16.40;;;20.50;99.90;;;;;;4933215;29;20544;-76
2022/05/18 05:48:30;;;;;;;19.03;17.50;;;20.60;99.90;;;;;;4933376;29;20460;-75
2022/05/18 05:50:57;;;;;;;16.03;15.03;;;21.00;99.90;;;;;;4933170;29;20527;-76
2022/05/18 05:53:23;;;;;;;18.10;16.67;;;21.40;99.90;;;;;;4933005;29;21030;-75
2022/05/18 05:55:53;;;;;;;17.73;16.57;;;21.70;99.90;;;;;;4933289;29;20453;-75
2022/05/18 05:58:21;;;;;;;17.57;16.27;;;21.70;99.90;;;;;;4933133;29;20468;-75
2022/05/18 06:00:48;;;;;;;18.63;17.17;;;22.10;99.90;;;;;;4933195;29;20457;-75
2022/05/18 06:03:15;;;;;;;18.20;16.87;;;22.30;99.90;;;;;;4932939;29;20453;-75
2022/05/18 06:05:42;;;;;;;18.60;17.10;;;22.40;99.90;;;;;;4932986;29;20449;-75
2022/05/18 06:08:09;;;;;;;19.90;18.30;;;22.60;99.90;;;;;;4932958;29;20800;-75
2022/05/18 06:10:36;;;;;;;17.10;15.90;;;22.60;99.90;;;;;;4933179;29;20847;-75
2022/05/18 06:13:07;;;;;;;18.03;16.60;;;22.80;99.90;;;;;;4933109;29;20485;-75
2022/05/18 06:15:34;;;;;;;17.37;16.27;;;23.10;99.90;;;;;;4933274;29;20481;-75
2022/05/18 06:18:00;;;;;;;16.60;15.53;;;23.20;99.70;;;;;;4933032;29;20453;-75
2022/05/18 06:20:27;;;;;;;15.53;14.60;;;23.40;99.40;;;;;;4932916;29;20468;-75
2022/05/18 06:22:54;;;;;;;16.80;15.63;;;23.90;97.70;;;;;;4932805;29;20457;-74
2022/05/18 06:25:21;;;;;;;18.10;16.67;;;23.70;97.30;;;;;;4932961;29;20936;-74
2022/05/18 06:27:47;;;;;;;15.47;14.43;;;23.80;97.30;;;;;;4933037;29;20461;-75
2022/05/18 06:30:16;;;;;;;16.17;15.27;;;23.80;96.50;;;;;;4932848;29;20449;-73
2022/05/18 06:32:43;;;;;;;15.73;14.53;;;23.90;96.60;;;;;;4932463;29;20519;-74
2022/05/18 06:35:10;;;;;;;17.33;16.20;;;23.80;96.60;;;;;;4932863;29;20453;-75
2022/05/18 06:37:36;;;;;;;15.87;14.90;;;23.80;96.30;;;;;;4934619;29;20480;-75
2022/05/18 06:40:04;;;;;;;16.20;15.40;;;23.80;96.20;;;;;;4941508;29;20461;-75
2022/05/18 06:42:31;;;;;;;15.67;14.60;;;23.90;95.70;;;;;;4934437;29;20449;-74
2022/05/18 06:44:59;;;;;;;16.00;14.50;;;23.90;95.60;;;;;;4936427;29;20500;-75
2022/05/18 06:47:27;;;;;;;16.20;15.33;;;24.20;95.00;;;;;;4936308;29;20868;-73
2022/05/18 06:49:54;;;;;;;16.20;15.30;;;24.40;95.00;;;;;;4936240;29;20469;-73
2022/05/18 06:52:21;;;;;;;17.00;15.83;;;24.70;94.90;;;;;;4936158;29;20457;-75
2022/05/18 06:54:48;;;;;;;15.70;14.67;;;24.50;94.40;;;;;;4936684;29;20449;-75
2022/05/18 06:57:15;;;;;;;17.30;16.00;;;25.10;93.70;;;;;;4936054;29;20839;-74
2022/05/18 06:59:41;;;;;;;15.40;14.50;;;25.20;93.20;;;;;;4935687;29;20453;-73
2022/05/18 07:02:08;;;;;;;16.47;15.33;;;25.10;94.00;;;;;;4936094;29;20449;-75
2022/05/18 07:04:37;;;;;;;15.33;14.60;;;25.60;92.90;;;;;;4936249;29;20476;-75
2022/05/18 07:07:04;;;;;;;15.87;14.80;;;25.90;91.50;;;;;;4936151;29;20456;-74
2022/05/18 07:09:32;;;;;;;14.93;14.23;;;25.90;91.10;;;;;;4935616;29;20460;-75
2022/05/18 07:11:58;;;;;;;14.73;14.03;;;26.30;90.50;;;;;;4935824;29;20441;-76
2022/05/18 07:14:27;;;;;;;14.27;13.67;;;26.40;90.00;;;;;;4935647;29;20480;-74
2022/05/18 07:16:55;;;;;;;16.63;15.43;;;26.40;89.50;;;;;;4935704;29;20529;-75
2022/05/18 07:19:23;;;;;;;15.13;14.43;;;26.80;89.00;;;;;;4935945;29;20807;-75
2022/05/18 07:21:52;;;;;;;14.83;14.20;;;27.20;86.30;;;;;;4935980;29;20453;-76
2022/05/18 07:24:19;;;;;;;15.30;14.50;;;27.50;85.30;;;;;;4935972;29;20442;-75
2022/05/18 07:26:46;;;;;;;15.37;14.47;;;27.50;84.90;;;;;;4935557;29;20483;-75
2022/05/18 07:29:13;;;;;;;15.60;14.70;;;28.00;83.10;;;;;;4935176;29;20983;-75
2022/05/18 07:34:22;;;;;;;15.17;14.30;;;29.20;79.10;;;;;;4935573;29;20956;-75
2022/05/18 07:36:50;;;;;;;16.23;15.10;;;29.70;76.20;;;;;;4935762;29;20549;-77
2022/05/18 07:39:18;;;;;;;15.23;14.63;;;29.80;76.20;;;;;;4935408;29;20457;-77
2022/05/18 07:41:45;;;;;;;16.27;15.33;;;30.10;73.30;;;;;;4935331;29;20457;-75
2022/05/18 07:44:12;;;;;;;15.03;14.33;;;29.10;74.00;;;;;;4935198;29;20464;-71
2022/05/18 07:46:39;;;;;;;15.90;15.10;;;28.70;76.80;;;;;;4935436;29;20457;-72
2022/05/18 07:49:07;;;;;;;16.00;15.30;;;29.30;75.10;;;;;;4935196;29;20457;-72
2022/05/18 07:51:34;;;;;;;16.13;15.30;;;29.80;72.80;;;;;;4935184;29;20458;-72
2022/05/18 07:54:00;;;;;;;16.83;15.80;;;29.90;71.90;;;;;;4934755;29;20552;-72
2022/05/18 07:56:28;;;;;;;16.80;15.73;;;30.60;71.00;;;;;;4934977;29;20450;-72
2022/05/18 07:58:55;;;;;;;15.60;14.90;;;31.00;69.80;;;;;;4934745;29;20468;-72
2022/05/18 08:01:22;;;;;;;16.03;15.13;;;31.60;66.60;;;;;;4934843;29;20460;-72
2022/05/18 08:03:49;;;;;;;17.13;16.23;;;32.10;64.10;;;;;;4935181;29;20445;-72
2022/05/18 08:06:15;;;;;;;16.50;15.60;;;31.70;63.40;;;;;;4935255;29;20482;-72
2022/05/18 08:08:42;;;;;;;16.37;15.30;;;31.50;63.70;;;;;;4934806;29;20457;-73
2022/05/18 08:16:48;;;;;;;17.53;15.83;;;32.40;61.20;;;;;;4934923;29;20531;-72
2022/05/18 08:19:15;;;;;;;17.77;16.83;;;33.00;60.10;;;;;;4936762;29;20517;-73
2022/05/18 08:21:42;;;;;;;16.93;15.93;;;33.00;59.20;;;;;;4953203;28;20509;-72
2022/05/18 08:24:10;;;;;;;15.70;14.90;;;32.90;58.90;;;;;;4953316;28;20476;-72
2022/05/18 08:26:37;;;;;;;17.70;16.50;;;33.40;57.70;;;;;;4953356;28;20487;-73
2022/05/18 08:29:06;;;;;;;16.33;15.63;;;33.40;57.40;;;;;;4953353;28;20511;-72
2022/05/18 08:31:33;;;;;;;16.60;15.63;;;33.00;58.10;;;;;;4953427;28;20456;-73
2022/05/18 08:34:00;;;;;;;17.30;16.27;;;33.50;57.40;;;;;;4952877;28;20988;-73
2022/05/18 08:36:27;;;;;;;16.47;15.60;;;34.00;56.70;;;;;;4953369;28;20851;-73
2022/05/18 08:38:55;;;;;;;15.80;15.10;;;33.50;55.20;;;;;;4952839;28;20931;-74
2022/05/18 08:41:24;;;;;;;15.93;15.23;;;33.30;56.30;;;;;;4953167;28;20460;-74
2022/05/18 08:43:54;;;;;;;15.93;15.23;;;32.70;55.90;;;;;;4953082;28;20859;-73
2022/05/18 08:46:35;;;;;;;15.80;15.00;;;32.70;56.10;;;;;;4953053;28;20460;-74
2022/05/18 08:49:12;;;;;;;17.13;16.33;;;32.20;57.00;;;;;;4953151;28;20460;-73
2022/05/18 08:51:48;;;;;;;15.53;14.80;;;31.60;57.90;;;;;;4952926;28;20488;-73
2022/05/18 08:54:31;;;;;;;16.00;15.20;;;32.10;58.10;;;;;;4952387;28;20490;-73
2022/05/18 08:56:59;;;;;;;15.10;14.40;;;33.00;57.20;;;;;;4952944;28;20486;-72
2022/05/18 08:59:30;;;;;;;17.40;16.10;;;34.00;54.70;;;;;;4952807;28;20490;-73
2022/05/18 09:02:00;;;;;;;16.40;15.40;;;34.70;53.30;;;;;;4952592;28;20449;-73
2022/05/18 09:04:41;;;;;;;16.40;15.70;;;34.70;52.80;;;;;;4952384;28;20920;-78
2022/05/18 09:07:12;;;;;;;16.70;15.70;;;34.30;52.70;;;;;;4949443;28;20457;-79
2022/05/18 09:12:33;;;;;;;17.43;16.20;;;33.70;53.90;;;;;;4949511;29;20547;-79
2022/05/18 09:15:00;;;;;;;16.27;15.53;;;33.50;53.30;;;;;;4952843;28;20590;-79
2022/05/18 09:17:36;;;;;;;16.53;15.73;;;33.10;54.20;;;;;;4952724;28;20456;-79
2022/05/18 09:20:13;;;;;;;16.17;15.37;;;33.10;54.60;;;;;;4952847;28;20460;-78
2022/05/18 09:23:04;;;;;;;15.80;15.10;;;32.80;53.70;;;;;;4952692;28;20467;-77
2022/05/18 09:25:40;;;;;;;15.93;15.23;;;33.10;54.10;;;;;;4952629;28;20460;-78
2022/05/18 09:28:18;;;;;;;17.90;16.63;;;33.10;54.10;;;;;;4952481;28;20495;-78
2022/05/18 09:31:01;;;;;;;17.67;16.80;;;33.40;53.50;;;;;;4952651;28;21029;-78
2022/05/18 09:33:44;;;;;;;16.47;15.83;;;34.10;52.90;;;;;;4952859;28;20488;-76
2022/05/18 09:36:26;;;;;;;16.20;15.50;;;34.90;49.60;;;;;;4952194;28;20557;-78
2022/05/18 09:39:02;;;;;;;16.40;15.60;;;34.70;49.10;;;;;;4952656;28;20459;-77
2022/05/18 09:41:36;;;;;;;17.03;16.23;;;33.80;49.10;;;;;;4952359;28;20463;-78
2022/05/18 09:44:07;;;;;;;15.47;14.87;;;33.40;50.50;;;;;;4952907;28;20462;-79
2022/05/18 09:46:34;;;;;;;15.80;15.00;;;33.00;50.70;;;;;;4952532;28;20459;-79
2022/05/18 09:49:11;;;;;;;15.97;15.30;;;33.30;51.00;;;;;;4952499;28;20825;-78
2022/05/18 09:51:39;;;;;;;17.00;16.13;;;33.40;50.10;;;;;;4952170;28;20983;-78
2022/05/18 09:54:07;;;;;;;15.57;14.87;;;34.40;47.70;;;;;;4952503;28;20499;-79
2022/05/18 09:56:37;;;;;;;15.33;14.63;;;34.90;46.20;;;;;;4952061;28;20456;-77
2022/05/18 09:59:10;;;;;;;15.30;14.80;;;33.60;45.20;;;;;;4953017;28;20536;-79
2022/05/18 10:07:30;;;;;;;16.53;15.83;;;33.60;49.30;;;;;;4952127;29;20432;-79
2022/05/18 10:10:03;;;;;;;16.10;15.20;;;33.70;48.20;;;;;;4952060;28;20813;-79
2022/05/18 10:12:37;;;;;;;16.73;15.90;;;34.10;48.80;;;;;;4951843;28;20479;-79
2022/05/18 10:15:07;;;;;;;16.63;15.77;;;33.80;48.90;;;;;;4952195;28;20575;-79
2022/05/18 10:17:37;;;;;;;16.03;15.40;;;35.00;47.60;;;;;;4954271;28;20928;-79
2022/05/18 10:20:11;;;;;;;16.20;15.40;;;34.70;46.40;;;;;;4956153;28;20448;-79
2022/05/18 10:22:42;;;;;;;16.07;15.43;;;34.80;46.00;;;;;;4956305;28;20468;-78
2022/05/18 10:25:13;;;;;;;15.47;14.80;;;34.00;47.00;;;;;;4955947;28;20432;-78
2022/05/18 10:27:44;;;;;;;16.07;15.47;;;34.00;47.50;;;;;;4955648;28;20477;-78
2022/05/18 10:30:16;;;;;;;15.83;14.93;;;34.50;45.80;;;;;;4955811;28;20444;-78
2022/05/18 10:32:54;;;;;;;13.60;13.00;;;33.70;46.30;;;;;;4955908;28;20460;-78
2022/05/18 10:35:49;;;;;;;14.90;14.20;;;32.80;47.20;;;;;;4956184;28;20488;-79
2022/05/18 10:38:20;;;;;;;15.17;14.57;;;32.60;47.70;;;;;;4955895;28;20456;-79
2022/05/18 10:40:47;;;;;;;14.83;14.03;;;32.40;47.90;;;;;;4955778;28;20453;-80
2022/05/18 10:43:29;;;;;;;15.20;14.40;;;32.40;47.30;;;;;;4955882;28;20457;-78
2022/05/18 10:45:57;;;;;;;14.93;14.43;;;32.30;46.80;;;;;;4955794;28;20511;-79
2022/05/18 10:48:27;;;;;;;16.00;15.30;;;32.20;47.90;;;;;;4955521;28;20453;-79
2022/05/18 10:51:06;;;;;;;15.20;14.60;;;31.80;48.80;;;;;;4955747;28;20484;-79
2022/05/18 10:53:39;;;;;;;15.23;14.53;;;31.90;48.40;;;;;;4955747;28;20456;-78
2022/05/18 10:56:10;;;;;;;15.73;15.13;;;31.70;48.90;;;;;;4955875;28;20456;-80
2022/05/18 10:58:41;;;;;;;15.93;15.23;;;32.10;48.60;;;;;;4955278;28;20456;-79
2022/05/18 11:01:12;;;;;;;15.20;14.60;;;33.00;48.10;;;;;;4955275;28;20821;-79
2022/05/18 11:03:47;;;;;;;15.20;14.60;;;32.60;46.70;;;;;;4955354;28;20786;-80
2022/05/18 11:06:19;;;;;;;16.17;15.53;;;32.30;45.60;;;;;;4955013;28;20454;-80
2022/05/18 11:08:46;;;;;;;15.80;15.20;;;32.90;45.20;;;;;;4955325;28;20943;-80
2022/05/18 11:11:23;;;;;;;15.30;14.70;;;33.10;46.90;;;;;;4954906;28;20448;-79
2022/05/18 11:13:57;;;;;;;15.03;14.33;;;33.70;46.50;;;;;;4955341;28;20845;-81
2022/05/18 11:16:35;;;;;;;16.10;15.40;;;34.50;44.00;;;;;;4955224;28;20463;-81
2022/05/18 11:19:13;;;;;;;15.83;15.23;;;33.70;42.50;;;;;;4955072;28;20455;-82
2022/05/18 11:22:01;;;;;;;15.77;14.93;;;33.20;44.70;;;;;;4954870;28;20455;-81
2022/05/18 11:24:37;;;;;;;16.00;15.20;;;33.10;45.20;;;;;;4955039;28;20460;-80
2022/05/18 11:27:17;;;;;;;15.00;14.30;;;32.70;46.30;;;;;;4955172;28;20879;-80
2022/05/18 11:29:57;;;;;;;16.40;15.40;;;33.20;46.20;;;;;;4953727;28;20488;-80
2022/05/18 11:32:31;;;;;;;15.87;14.90;;;33.90;45.50;;;;;;4954708;28;20452;-79
2022/05/18 11:35:11;;;;;;;14.80;14.10;;;34.40;43.90;;;;;;4954543;28;20488;-80
2022/05/18 11:37:59;;;;;;;15.40;14.40;;;34.30;41.40;;;;;;4954862;28;20788;-81
2022/05/18 11:40:34;;;;;;;14.63;13.90;;;33.40;42.30;;;;;;4954424;28;20978;-82
2022/05/18 11:45:59;;;;;;;15.00;14.40;;;32.90;44.20;;;;;;4954411;28;20492;-81
2022/05/18 11:48:34;;;;;;;15.00;14.50;;;32.20;44.50;;;;;;4954301;28;20459;-80
2022/05/18 11:51:16;;;;;;;15.07;14.17;;;32.70;45.60;;;;;;4954925;28;20551;-80
2022/05/18 11:53:55;;;;;;;16.17;15.37;;;33.80;44.40;;;;;;4954378;28;20460;-80
2022/05/18 11:56:32;;;;;;;15.83;15.13;;;34.40;43.10;;;;;;4954844;28;20463;-81
2022/05/18 11:59:28;;;;;;;15.70;15.00;;;34.70;43.00;;;;;;4954523;28;20468;-81
2022/05/18 12:02:13;;;;;;;15.60;14.90;;;34.10;42.90;;;;;;4954648;28;20489;-80
2022/05/18 12:04:55;;;;;;;15.87;15.07;;;32.60;45.00;;;;;;4954393;28;20457;-81
2022/05/18 12:07:39;;;;;;;15.63;15.00;;;32.10;46.50;;;;;;4954667;28;20444;-81
2022/05/18 12:10:24;;;;;;;16.20;15.30;;;31.90;47.30;;;;;;4954406;28;20460;-80
2022/05/18 12:12:55;;;;;;;15.10;14.50;;;32.30;47.10;;;;;;4954313;28;20456;-80
2022/05/18 12:15:28;;;;;;;15.47;14.83;;;32.20;47.20;;;;;;4954414;28;20580;-82
2022/05/18 12:17:59;;;;;;;15.27;14.50;;;32.80;46.20;;;;;;4954317;28;20479;-81
2022/05/18 12:20:32;;;;;;;15.10;14.30;;;33.00;46.60;;;;;;4954249;28;20461;-82
2022/05/18 12:23:02;;;;;;;15.50;14.80;;;34.20;45.70;;;;;;4954005;28;21018;-82
2022/05/18 12:25:31;;;;;;;16.90;15.70;;;35.60;43.10;;;;;;4954052;28;20457;-83
2022/05/18 12:28:01;;;;;;;16.00;15.30;;;36.50;42.20;;;;;;4953558;28;20484;-82
2022/05/18 12:30:31;;;;;;;16.93;15.97;;;35.80;42.60;;;;;;4954032;28;20453;-84
2022/05/18 12:32:58;;;;;;;16.10;15.40;;;34.60;42.90;;;;;;4954095;28;20459;-81
2022/05/18 12:35:30;;;;;;;15.47;14.77;;;32.80;44.60;;;;;;4953722;28;20453;-79
2022/05/18 12:38:05;;;;;;;15.10;14.40;;;32.80;44.80;;;;;;4953955;28;20857;-81
2022/05/18 12:40:49;;;;;;;14.83;14.23;;;32.40;44.60;;;;;;4953787;28;20939;-82
2022/05/18 12:43:23;;;;;;;16.30;15.50;;;33.40;44.60;;;;;;4953913;28;20965;-83
2022/05/18 12:45:57;;;;;;;16.10;15.40;;;34.60;43.40;;;;;;4953750;28;20990;-83
2022/05/18 12:48:37;;;;;;;16.40;15.80;;;35.60;41.80;;;;;;4953927;28;20819;-82
2022/05/18 12:51:12;;;;;;;15.53;14.93;;;35.60;41.30;;;;;;4953660;28;20463;-80
2022/05/18 12:54:00;;;;;;;16.90;16.03;;;34.40;42.20;;;;;;4953656;28;20451;-81
2022/05/18 12:56:52;;;;;;;15.07;14.37;;;32.70;44.60;;;;;;4953570;28;20459;-82
2022/05/18 12:59:20;;;;;;;14.97;14.47;;;32.30;45.70;;;;;;4954220;28;20457;-82
2022/05/18 13:01:51;;;;;;;15.23;14.53;;;32.30;45.00;;;;;;4954495;28;20448;-81
2022/05/18 13:04:42;;;;;;;16.83;16.10;;;32.60;44.70;;;;;;4954728;28;20866;-81
2022/05/18 13:07:30;;;;;;;16.63;15.77;;;32.50;45.00;;;;;;4953606;28;20455;-81
2022/05/18 13:10:12;;;;;;;14.53;14.03;;;31.80;45.50;;;;;;4953395;28;20461;-81
2022/05/18 13:12:46;;;;;;;15.00;14.40;;;32.10;45.50;;;;;;4953194;28;20466;-82
2022/05/18 13:15:50;;;;;;;16.70;15.90;;;33.40;44.20;;;;;;4953215;28;20947;-80
2022/05/18 13:18:19;;;;;;;15.80;15.10;;;33.50;43.60;;;;;;4952994;28;20485;-79
2022/05/18 13:20:56;;;;;;;15.03;14.33;;;32.50;45.00;;;;;;4953577;28;20460;-81
2022/05/18 13:23:33;;;;;;;14.37;13.67;;;31.70;47.00;;;;;;4953194;28;20463;-80
2022/05/18 13:26:03;;;;;;;17.20;16.20;;;31.40;46.00;;;;;;4953042;28;20503;-81
2022/05/18 13:28:33;;;;;;;15.10;14.50;;;31.40;46.80;;;;;;4952536;28;20501;-80
2022/05/18 13:31:02;;;;;;;16.20;15.50;;;31.90;47.10;;;;;;4952886;28;20499;-80
2022/05/18 13:33:36;;;;;;;15.63;14.93;;;32.60;45.50;;;;;;4952866;28;20461;-79
2022/05/18 13:36:03;;;;;;;15.20;14.60;;;32.30;45.60;;;;;;4952684;28;20459;-79
2022/05/18 13:38:32;;;;;;;15.93;14.57;;;32.10;45.60;;;;;;4952666;28;20461;-79
2022/05/18 13:41:00;;;;;;;14.10;13.50;;;32.00;46.40;;;;;;4952728;28;20555;-80
2022/05/18 13:43:33;;;;;;;15.33;14.67;;;31.70;45.90;;;;;;4952706;28;20543;-79
2022/05/18 13:46:04;;;;;;;14.90;14.30;;;31.50;45.90;;;;;;4952654;28;20488;-81
2022/05/18 13:48:31;;;;;;;15.50;14.80;;;31.30;46.50;;;;;;4952645;28;20459;-81
2022/05/18 13:51:03;;;;;;;14.70;14.10;;;32.00;45.80;;;;;;4952682;28;20557;-82
2022/05/18 13:53:33;;;;;;;15.10;14.50;;;32.30;45.10;;;;;;4952666;28;20491;-84
2022/05/18 13:56:06;;;;;;;14.80;14.20;;;33.00;44.90;;;;;;4953064;28;20456;-79
2022/05/18 13:58:40;;;;;;;14.80;14.20;;;32.30;44.40;;;;;;4953214;28;20456;-79
2022/05/18 14:01:10;;;;;;;13.67;13.07;;;31.70;46.00;;;;;;4954225;28;20467;-83
2022/05/18 14:03:41;;;;;;;14.47;13.83;;;32.40;45.60;;;;;;4953273;28;20460;-82
2022/05/18 14:06:13;;;;;;;14.47;13.87;;;33.50;43.80;;;;;;4953046;28;20492;-78
2022/05/18 14:08:42;;;;;;;14.23;13.50;;;32.60;44.80;;;;;;4952839;28;20918;-78
2022/05/18 14:11:12;;;;;;;15.00;14.27;;;32.10;45.20;;;;;;4952440;28;20460;-77
2022/05/18 14:13:42;;;;;;;14.80;14.00;;;31.50;46.60;;;;;;4952580;28;20464;-76
2022/05/18 14:16:16;;;;;;;15.33;14.30;;;31.20;47.20;;;;;;4952352;28;20452;-77
2022/05/18 14:18:48;;;;;;;15.00;14.30;;;31.10;47.10;;;;;;4952319;28;20443;-76
2022/05/18 14:21:15;;;;;;;15.83;15.00;;;31.70;46.30;;;;;;4950082;29;20456;-78
2022/05/18 14:23:51;;;;;;;14.97;14.37;;;32.40;45.80;;;;;;4952151;29;20453;-80
2022/05/18 14:26:23;;;;;;;16.13;15.30;;;32.70;45.90;;;;;;4950354;28;20526;-78
2022/05/18 14:28:54;;;;;;;15.60;14.80;;;33.40;45.30;;;;;;4951789;28;20918;-77
2022/05/18 14:31:25;;;;;;;15.40;14.80;;;33.90;45.30;;;;;;4952177;29;20448;-78
2022/05/18 14:33:55;;;;;;;14.80;14.20;;;33.60;44.50;;;;;;4949783;29;20444;-77
2022/05/18 14:36:28;;;;;;;14.70;14.20;;;32.80;45.10;;;;;;4952101;28;20452;-77
2022/05/18 14:38:59;;;;;;;15.77;15.07;;;31.70;46.40;;;;;;4952042;28;20451;-79
2022/05/18 14:41:26;;;;;;;14.17;13.53;;;31.30;47.30;;;;;;4951973;29;20539;-77
2022/05/18 14:44:00;;;;;;;15.23;14.53;;;31.00;47.90;;;;;;4951565;29;20919;-77
2022/05/18 14:46:30;;;;;;;15.00;14.30;;;30.70;48.60;;;;;;4951961;29;20473;-78
2022/05/18 14:49:05;;;;;;;15.60;15.00;;;30.20;49.00;;;;;;4949714;29;20802;-77
2022/05/18 14:51:43;;;;;;;14.30;13.70;;;29.90;49.50;;;;;;4951838;28;20871;-77
2022/05/18 14:54:16;;;;;;;15.20;14.10;;;30.20;49.60;;;;;;4951698;28;20451;-77
2022/05/18 14:56:47;;;;;;;14.20;13.60;;;30.40;49.70;;;;;;4951307;28;20507;-77
2022/05/18 14:59:17;;;;;;;14.20;13.60;;;30.30;49.40;;;;;;4949194;29;20440;-77
2022/05/18 15:01:49;;;;;;;14.27;13.57;;;29.80;49.40;;;;;;4951380;28;20448;-76
2022/05/18 15:04:22;;;;;;;16.13;13.87;;;29.50;50.50;;;;;;4952559;28;20440;-76
2022/05/18 15:06:51;;;;;;;15.00;14.30;;;29.10;51.50;;;;;;4956037;29;20469;-76
2022/05/18 15:09:23;;;;;;;13.57;13.07;;;28.90;52.20;;;;;;4956142;29;20459;-76
2022/05/18 15:11:54;;;;;;;14.37;13.77;;;28.50;59.20;;;;;;4955643;29;20541;-75
2022/05/18 15:14:37;;;;;;;14.27;13.67;;;28.50;53.50;;;;;;4955700;28;20488;-76
2022/05/18 15:17:14;;;;;;;15.50;14.50;;;28.50;54.00;;;;;;4955671;29;20445;-77
2022/05/18 15:19:46;;;;;;;15.20;14.47;;;28.40;54.00;;;;;;4955351;29;20460;-75
2022/05/18 15:22:15;;;;;;;14.60;14.00;;;28.30;54.40;;;;;;4955438;29;20504;-75
2022/05/18 15:24:42;;;;;;;14.70;13.80;;;28.40;54.60;;;;;;4955141;29;20977;-75
2022/05/18 15:27:19;;;;;;;14.03;13.53;;;28.50;54.80;;;;;;4955220;28;20504;-82
2022/05/18 15:29:54;;;;;;;14.60;14.00;;;28.60;54.30;;;;;;4955053;28;20484;-76
2022/05/18 15:32:25;;;;;;;14.70;14.10;;;28.50;54.30;;;;;;4955202;29;20456;-81
2022/05/18 15:34:56;;;;;;;14.87;14.17;;;28.40;54.70;;;;;;4953071;29;20468;-75
2022/05/18 15:37:23;;;;;;;15.07;14.37;;;28.50;55.20;;;;;;4954879;28;20813;-76
2022/05/18 15:39:52;;;;;;;15.07;14.33;;;28.40;54.30;;;;;;4954724;29;20444;-76
2022/05/18 15:42:21;;;;;;;14.60;13.90;;;28.20;54.20;;;;;;4954682;29;20544;-79
2022/05/18 15:44:52;;;;;;;14.40;13.80;;;28.20;54.10;;;;;;4954915;29;20452;-79
2022/05/18 15:47:22;;;;;;;15.13;14.53;;;28.20;53.90;;;;;;4955123;29;20543;-75
2022/05/18 15:49:55;;;;;;;14.40;13.70;;;28.30;55.20;;;;;;4955209;29;20460;-82
2022/05/18 15:52:23;;;;;;;14.40;13.90;;;28.10;55.20;;;;;;4954954;29;20913;-77
2022/05/18 15:54:53;;;;;;;14.90;14.00;;;28.00;55.60;;;;;;4954984;29;20969;-78
2022/05/18 15:57:21;;;;;;;13.47;12.93;;;28.00;55.90;;;;;;4955666;29;20520;-81
2022/05/18 15:59:48;;;;;;;14.67;14.10;;;27.90;55.60;;;;;;4955389;28;20456;-80
2022/05/18 16:02:16;;;;;;;14.00;13.20;;;28.00;55.80;;;;;;4955116;29;20468;-80
2022/05/18 16:04:45;;;;;;;13.70;13.10;;;28.10;55.70;;;;;;4954757;29;20463;-81
2022/05/18 16:07:12;;;;;;;14.40;13.80;;;28.10;55.20;;;;;;4954360;29;20491;-76
2022/05/18 16:09:39;;;;;;;12.70;12.20;;;28.10;55.60;;;;;;4954332;29;20467;-76
2022/05/18 16:12:08;;;;;;;14.33;13.63;;;28.10;55.70;;;;;;4954553;29;20456;-76
2022/05/18 16:14:34;;;;;;;13.87;13.23;;;28.00;55.10;;;;;;4954289;28;20943;-76
2022/05/18 16:17:01;;;;;;;13.20;12.60;;;28.00;55.00;;;;;;4954416;29;20825;-75
2022/05/18 16:19:29;;;;;;;13.37;12.67;;;27.90;55.00;;;;;;4954331;29;20463;-76
2022/05/18 16:21:56;;;;;;;14.00;13.27;;;28.00;55.10;;;;;;4954387;29;20729;-77
2022/05/18 16:24:26;;;;;;;14.10;13.30;;;27.90;54.90;;;;;;4954393;29;20466;-77
2022/05/18 16:26:53;;;;;;;13.50;12.90;;;27.90;54.80;;;;;;4949242;29;20874;-76
2022/05/18 16:29:26;;;;;;;13.00;12.40;;;27.80;54.90;;;;;;4947355;29;20842;-76
2022/05/18 16:31:53;;;;;;;14.30;13.50;;;27.80;55.60;;;;;;4953975;29;20459;-77
2022/05/18 16:34:19;;;;;;;13.87;13.07;;;27.80;56.10;;;;;;4954052;29;20463;-78
2022/05/18 16:36:48;;;;;;;13.20;12.70;;;27.90;55.00;;;;;;4954194;29;20931;-77
2022/05/18 16:39:15;;;;;;;14.30;13.50;;;27.90;55.00;;;;;;4953617;29;20460;-76
2022/05/18 16:41:43;;;;;;;13.67;12.60;;;27.90;55.80;;;;;;4953846;29;20831;-78
2022/05/18 16:44:12;;;;;;;13.93;13.23;;;27.80;56.60;;;;;;4953726;28;20456;-76
2022/05/18 16:46:42;;;;;;;13.93;13.33;;;27.80;58.30;;;;;;4953723;29;20492;-77
2022/05/18 16:49:09;;;;;;;13.70;13.20;;;27.70;58.70;;;;;;4953747;29;20457;-77
2022/05/18 16:51:37;;;;;;;13.10;12.50;;;27.70;59.50;;;;;;4953607;29;20457;-77
2022/05/18 16:54:06;;;;;;;13.10;12.40;;;27.70;58.90;;;;;;4954198;29;20902;-78
2022/05/18 16:56:34;;;;;;;14.60;14.00;;;27.70;59.30;;;;;;4953454;29;20448;-77
2022/05/18 16:59:02;;;;;;;14.30;13.50;;;27.60;60.50;;;;;;4953467;29;20461;-77
2022/05/18 17:01:29;;;;;;;13.77;13.07;;;27.60;60.60;;;;;;4954152;29;20825;-76
2022/05/18 17:03:56;;;;;;;14.83;13.40;;;27.50;61.50;;;;;;4953513;29;20455;-77
2022/05/18 17:06:25;;;;;;;15.50;14.60;;;27.40;61.70;;;;;;4953244;29;20957;-77
2022/05/18 17:08:54;;;;;;;13.17;12.57;;;27.40;62.10;;;;;;4953507;29;20459;-77
2022/05/18 17:11:30;;;;;;;13.23;12.23;;;27.40;62.30;;;;;;4953388;29;20464;-76
2022/05/18 17:14:00;;;;;;;13.80;13.10;;;27.30;62.10;;;;;;4953459;29;20877;-76
2022/05/18 17:16:27;;;;;;;13.97;13.27;;;27.20;62.50;;;;;;4953192;29;20453;-78
2022/05/18 17:18:55;;;;;;;13.53;12.80;;;27.20;63.10;;;;;;4953357;29;20463;-78
2022/05/18 17:21:24;;;;;;;13.43;12.73;;;27.10;63.70;;;;;;4953347;29;20480;-79
2022/05/18 17:23:51;;;;;;;14.33;13.53;;;27.10;64.10;;;;;;4953272;29;20460;-78
2022/05/18 17:26:21;;;;;;;12.87;12.27;;;27.00;63.80;;;;;;4952293;28;20500;-78
2022/05/18 17:28:52;;;;;;;14.50;13.70;;;26.90;63.60;;;;;;4953266;29;20480;-78
2022/05/18 17:31:19;;;;;;;13.70;12.80;;;26.90;64.60;;;;;;4953129;29;20448;-78
2022/05/18 17:33:46;;;;;;;13.43;12.83;;;26.90;64.40;;;;;;4953724;29;20488;-77
2022/05/18 17:36:14;;;;;;;14.50;13.67;;;26.90;65.50;;;;;;4953082;29;20453;-78